Time;durP1;ratioP1;P1;durP2;ratioP2;P2;SDS_P1;SDS_P2;PMS_P1;PMS_P2;Temp;Humidity;BMP_temperature;BMP_pressure;BME280_temperature;BME280_humidity;BME280_pressure;Samples;Min_cycle;Max_cycle;Signal;HPM_P1;HPM_P2
2021/09/02 00:02:03;;;;;;;7.13;3.70;;;29.50;90.90;;;;;;5062216;28;20229;-53
2021/09/02 00:04:31;;;;;;;11.80;4.13;;;29.40;90.90;;;;;;5064710;28;20063;-49
2021/09/02 00:06:59;;;;;;;9.80;4.40;;;29.30;90.80;;;;;;5064410;28;20127;-48
2021/09/02 00:12:55;;;;;;;5.78;4.05;;;29.30;90.90;;;;;;5080553;28;20486;-59
2021/09/02 00:15:22;;;;;;;10.88;4.07;;;29.20;91.20;;;;;;5081221;28;20033;-47
2021/09/02 00:17:49;;;;;;;6.47;4.38;;;29.20;91.20;;;;;;5080969;28;20036;-51
2021/09/02 00:20:16;;;;;;;7.32;4.80;;;29.20;91.20;;;;;;5081317;28;20020;-47
2021/09/02 00:22:42;;;;;;;7.75;5.07;;;29.20;91.20;;;;;;5081397;28;20312;-48
2021/09/02 00:25:10;;;;;;;8.10;5.20;;;29.10;91.20;;;;;;5081085;28;20028;-47
2021/09/02 00:27:37;;;;;;;9.60;4.82;;;29.10;91.20;;;;;;5081422;28;20016;-49
2021/09/02 00:30:05;;;;;;;8.45;4.22;;;29.10;91.10;;;;;;5080049;28;20366;-47
2021/09/02 00:32:32;;;;;;;5.57;3.72;;;29.10;91.10;;;;;;5080723;28;20070;-48
2021/09/02 00:34:59;;;;;;;7.97;4.25;;;29.10;91.00;;;;;;5080534;28;20021;-54
2021/09/02 00:37:25;;;;;;;8.35;3.90;;;29.10;91.20;;;;;;5081108;28;20009;-49
2021/09/02 00:39:52;;;;;;;9.18;3.70;;;29.00;91.40;;;;;;5079960;28;20025;-51
2021/09/02 00:42:18;;;;;;;7.20;3.72;;;29.00;91.40;;;;;;5079381;28;20040;-49
2021/09/02 00:44:48;;;;;;;7.90;3.58;;;28.90;91.40;;;;;;5078645;28;20029;-52
2021/09/02 00:47:17;;;;;;;4.68;2.70;;;28.90;91.60;;;;;;5079233;28;20020;-49
2021/09/02 00:49:45;;;;;;;5.07;2.25;;;28.80;91.70;;;;;;5078796;28;20028;-50
2021/09/02 00:52:17;;;;;;;6.53;2.30;;;28.70;91.70;;;;;;5077405;28;20027;-48
2021/09/02 00:54:48;;;;;;;4.93;2.20;;;28.70;91.90;;;;;;5079252;28;20084;-49
2021/09/02 00:57:24;;;;;;;6.15;2.20;;;28.70;91.90;;;;;;5080669;28;20079;-47
2021/09/02 00:59:52;;;;;;;5.18;2.65;;;28.60;91.70;;;;;;5080373;28;20028;-49
2021/09/02 01:02:20;;;;;;;9.57;2.60;;;28.50;91.70;;;;;;5080662;28;20017;-51
2021/09/02 01:04:47;;;;;;;4.05;2.40;;;28.40;91.60;;;;;;5079250;28;20025;-57
2021/09/02 01:07:14;;;;;;;5.65;2.97;;;28.40;91.70;;;;;;5065638;28;20014;-54
2021/09/02 01:09:42;;;;;;;7.97;2.47;;;28.30;91.80;;;;;;5060293;28;20021;-56
2021/09/02 01:12:31;;;;;;;3.22;1.40;;;28.30;91.60;;;;;;5057497;28;20045;-50
2021/09/02 01:15:06;;;;;;;4.05;1.35;;;28.20;91.50;;;;;;5060379;28;20025;-49
2021/09/02 01:17:33;;;;;;;3.85;2.10;;;28.10;91.40;;;;;;5060294;28;20075;-53
2021/09/02 01:20:00;;;;;;;1.95;1.70;;;28.10;91.50;;;;;;5059892;28;20028;-52
2021/09/02 01:22:29;;;;;;;2.92;2.00;;;28.00;91.50;;;;;;5056779;28;20187;-53
2021/09/02 01:25:03;;;;;;;2.53;2.30;;;28.00;91.70;;;;;;5046796;28;20044;-53
2021/09/02 01:27:30;;;;;;;3.17;1.90;;;28.00;91.50;;;;;;5046930;28;20055;-51
2021/09/02 01:29:58;;;;;;;5.43;1.10;;;27.90;91.50;;;;;;5046671;28;20340;-54
2021/09/02 01:32:33;;;;;;;1.50;1.00;;;27.80;91.10;;;;;;5046687;28;20053;-46
2021/09/02 01:35:01;;;;;;;4.38;1.40;;;27.90;91.20;;;;;;5046154;28;20233;-49
2021/09/02 01:37:44;;;;;;;6.40;3.78;;;27.80;91.00;;;;;;5046008;28;20045;-49
2021/09/02 01:40:31;;;;;;;6.43;2.97;;;27.90;90.90;;;;;;5046267;28;20028;-50
2021/09/02 01:43:00;;;;;;;3.15;1.70;;;27.90;90.80;;;;;;5045675;28;20048;-47
2021/09/02 01:45:27;;;;;;;3.42;1.23;;;27.90;90.90;;;;;;5045554;28;20084;-47
2021/09/02 01:47:59;;;;;;;1.92;1.33;;;28.00;90.90;;;;;;5045407;28;20111;-48
2021/09/02 01:50:26;;;;;;;;;;;27.90;91.00;;;;;;5046471;28;20024;-55
2021/09/02 01:52:55;;;;;;;5.13;1.10;;;27.90;91.10;;;;;;5046148;28;19924;-50
2021/09/02 01:55:23;;;;;;;2.72;0.90;;;27.80;91.20;;;;;;5045013;28;20037;-49
2021/09/02 01:57:51;;;;;;;2.97;0.90;;;27.80;91.10;;;;;;5043046;28;20333;-48
2021/09/02 02:00:19;;;;;;;2.85;0.95;;;27.70;91.20;;;;;;5041540;28;20101;-48
2021/09/02 02:02:49;;;;;;;1.83;0.90;;;27.70;91.10;;;;;;5042638;28;20357;-48
2021/09/02 02:05:17;;;;;;;2.45;1.38;;;27.70;91.20;;;;;;5034183;28;20032;-52
2021/09/02 02:07:45;;;;;;;4.80;1.10;;;27.70;91.20;;;;;;5042774;28;20021;-49
2021/09/02 02:10:15;;;;;;;4.65;1.30;;;27.70;91.00;;;;;;5045555;28;20029;-49
2021/09/02 02:12:42;;;;;;;3.83;0.90;;;27.70;91.10;;;;;;5045582;28;20044;-49
2021/09/02 02:15:11;;;;;;;4.40;0.95;;;27.70;91.20;;;;;;5046097;28;20033;-55
2021/09/02 02:17:39;;;;;;;3.78;0.90;;;27.80;91.20;;;;;;5045614;28;20033;-52
2021/09/02 02:20:07;;;;;;;4.70;1.00;;;27.70;91.00;;;;;;5045437;28;20033;-48
2021/09/02 02:22:33;;;;;;;1.58;0.73;;;27.70;91.10;;;;;;5045082;28;20053;-48
2021/09/02 02:25:00;;;;;;;4.45;0.88;;;27.70;91.10;;;;;;5045564;28;20028;-52
2021/09/02 02:27:27;;;;;;;3.95;1.00;;;27.70;91.10;;;;;;5045380;28;20037;-51
2021/09/02 02:29:54;;;;;;;5.53;0.95;;;27.70;91.20;;;;;;5045612;28;20063;-50
2021/09/02 02:32:20;;;;;;;3.97;1.20;;;27.70;91.10;;;;;;5045807;28;20079;-47
2021/09/02 02:34:47;;;;;;;1.95;1.13;;;27.70;91.10;;;;;;5044521;28;20076;-49
2021/09/02 02:37:13;;;;;;;4.53;1.33;;;27.70;91.00;;;;;;5045600;28;20093;-49
2021/09/02 02:39:40;;;;;;;4.72;1.10;;;27.70;91.20;;;;;;5045307;28;20021;-49
2021/09/02 02:42:08;;;;;;;4.93;1.25;;;27.70;91.20;;;;;;5045523;28;20033;-52
2021/09/02 02:44:35;;;;;;;3.58;0.80;;;27.70;91.20;;;;;;5045327;28;20082;-47
2021/09/02 02:47:03;;;;;;;2.70;1.25;;;27.70;91.30;;;;;;5045533;28;20100;-51
2021/09/02 02:49:29;;;;;;;5.80;1.40;;;27.70;91.50;;;;;;5045173;28;20025;-51
2021/09/02 02:51:56;;;;;;;2.45;1.42;;;27.60;91.60;;;;;;5045130;28;20028;-56
2021/09/02 02:54:23;;;;;;;4.95;1.27;;;27.60;91.40;;;;;;5042172;28;20075;-54
2021/09/02 02:56:49;;;;;;;5.97;1.40;;;27.60;91.40;;;;;;5045322;28;20032;-50
2021/09/02 02:59:17;;;;;;;3.40;1.45;;;27.60;91.50;;;;;;5045045;28;20048;-48
2021/09/02 03:01:44;;;;;;;3.55;1.40;;;27.60;91.50;;;;;;5045373;28;20044;-50
2021/09/02 03:04:11;;;;;;;1.73;1.10;;;27.60;91.40;;;;;;5044896;28;20209;-46
2021/09/02 03:06:37;;;;;;;6.30;1.25;;;27.60;91.40;;;;;;5044849;28;20025;-49
2021/09/02 03:09:04;;;;;;;6.85;1.48;;;27.60;91.50;;;;;;5045483;28;20201;-45
2021/09/02 03:11:34;;;;;;;4.00;1.30;;;27.60;91.50;;;;;;5044527;28;20194;-49
2021/09/02 03:14:01;;;;;;;5.05;1.48;;;27.50;91.70;;;;;;5044702;28;20071;-47
2021/09/02 03:16:27;;;;;;;3.70;1.60;;;27.50;91.60;;;;;;5044860;28;20051;-51
2021/09/02 03:18:54;;;;;;;4.85;2.10;;;27.50;91.60;;;;;;5043604;28;20017;-50
2021/09/02 03:21:21;;;;;;;7.03;1.42;;;27.50;91.70;;;;;;5044714;28;20036;-54
2021/09/02 03:23:48;;;;;;;3.80;1.52;;;27.60;91.60;;;;;;5043897;28;20009;-54
2021/09/02 03:26:15;;;;;;;3.70;1.63;;;27.60;91.60;;;;;;5044350;28;20037;-48
2021/09/02 03:28:42;;;;;;;2.25;1.30;;;27.60;91.50;;;;;;5044342;28;20017;-47
2021/09/02 03:31:08;;;;;;;3.60;1.60;;;27.60;91.40;;;;;;5043630;28;20068;-49
2021/09/02 03:33:35;;;;;;;4.75;1.70;;;27.60;91.40;;;;;;5044218;28;20237;-47
2021/09/02 03:36:02;;;;;;;3.67;1.55;;;27.60;91.30;;;;;;5044066;28;20052;-49
2021/09/02 03:38:28;;;;;;;4.45;1.50;;;27.60;91.50;;;;;;5043982;28;20033;-46
2021/09/02 03:40:55;;;;;;;4.28;1.35;;;27.60;91.50;;;;;;5043530;28;20029;-46
2021/09/02 03:43:21;;;;;;;5.07;1.60;;;27.60;91.40;;;;;;5044120;28;20059;-47
2021/09/02 03:45:49;;;;;;;2.10;1.23;;;27.70;91.30;;;;;;5043540;28;20029;-50
2021/09/02 03:48:16;;;;;;;4.25;1.88;;;27.70;91.20;;;;;;5043893;28;20053;-51
2021/09/02 03:50:42;;;;;;;3.42;1.20;;;27.70;91.20;;;;;;5043943;28;20355;-46
2021/09/02 03:53:09;;;;;;;9.57;1.42;;;27.80;91.10;;;;;;5043804;28;20225;-55
2021/09/02 03:55:35;;;;;;;4.65;1.90;;;27.70;91.30;;;;;;5044095;28;20033;-51
2021/09/02 03:58:02;;;;;;;4.85;1.45;;;27.70;91.10;;;;;;5043797;28;20240;-48
2021/09/02 04:00:29;;;;;;;3.22;1.60;;;27.80;91.10;;;;;;5043485;28;20045;-46
2021/09/02 04:02:55;;;;;;;4.07;1.40;;;27.70;91.00;;;;;;5043700;28;20033;-49
2021/09/02 04:05:24;;;;;;;3.20;1.38;;;27.70;91.00;;;;;;5043756;28;20089;-51
2021/09/02 04:07:50;;;;;;;2.60;1.15;;;27.70;91.00;;;;;;5043553;28;20025;-53
2021/09/02 04:10:17;;;;;;;6.22;1.60;;;27.80;91.10;;;;;;5043822;28;20022;-51
2021/09/02 04:12:43;;;;;;;3.58;1.27;;;27.70;91.30;;;;;;5043378;28;20333;-47
2021/09/02 04:15:10;;;;;;;3.72;1.38;;;27.80;91.10;;;;;;5043359;28;20245;-49
2021/09/02 04:17:36;;;;;;;5.95;1.40;;;27.70;91.20;;;;;;5042327;28;20025;-48
2021/09/02 04:20:04;;;;;;;2.95;1.52;;;27.70;91.30;;;;;;5043551;28;20044;-46
2021/09/02 04:22:31;;;;;;;3.40;1.73;;;27.70;91.30;;;;;;5043918;28;20033;-50
2021/09/02 04:24:57;;;;;;;4.60;1.40;;;27.70;91.30;;;;;;5043538;28;20033;-50
2021/09/02 04:27:24;;;;;;;3.92;1.58;;;27.70;91.30;;;;;;5043691;28;20056;-46
2021/09/02 04:29:51;;;;;;;4.70;1.77;;;27.70;91.30;;;;;;5042824;28;20033;-52
2021/09/02 04:32:17;;;;;;;20.83;18.25;;;27.70;91.40;;;;;;5043769;28;20042;-45
2021/09/02 04:34:44;;;;;;;5.82;3.60;;;27.70;91.50;;;;;;5043426;28;20025;-45
2021/09/02 04:37:10;;;;;;;6.43;3.25;;;27.70;91.40;;;;;;5043673;28;20029;-47
2021/09/02 04:39:37;;;;;;;3.55;2.83;;;27.70;91.50;;;;;;5043507;28;20373;-47
2021/09/02 04:42:04;;;;;;;6.07;3.10;;;27.70;91.50;;;;;;5043565;28;20294;-48
2021/09/02 04:44:30;;;;;;;7.47;3.50;;;27.60;91.60;;;;;;5042861;28;20075;-49
2021/09/02 04:46:57;;;;;;;4.40;2.80;;;27.60;91.60;;;;;;5043433;28;20037;-57
2021/09/02 04:49:24;;;;;;;5.20;2.22;;;27.60;91.60;;;;;;5043019;28;20045;-46
2021/09/02 04:51:50;;;;;;;6.75;2.00;;;27.60;91.60;;;;;;5042766;28;20036;-47
2021/09/02 04:54:17;;;;;;;6.70;2.03;;;27.60;91.70;;;;;;5042192;28;20024;-50
2021/09/02 04:56:43;;;;;;;4.63;1.75;;;27.60;91.70;;;;;;5043395;28;20045;-47
2021/09/02 04:59:10;;;;;;;4.45;1.83;;;27.60;91.70;;;;;;5046345;28;20321;-53
2021/09/02 05:01:37;;;;;;;7.18;1.30;;;27.60;91.70;;;;;;5046896;28;20217;-57
2021/09/02 05:04:03;;;;;;;4.93;1.52;;;27.60;91.70;;;;;;5046832;28;20084;-49
2021/09/02 05:06:30;;;;;;;6.63;1.70;;;27.60;91.70;;;;;;5046691;28;20029;-51
2021/09/02 05:08:56;;;;;;;6.90;1.70;;;27.50;91.90;;;;;;5046595;28;20021;-48
2021/09/02 05:11:23;;;;;;;4.40;1.67;;;27.50;91.90;;;;;;5046471;28;20333;-47
2021/09/02 05:13:50;;;;;;;5.25;1.38;;;27.50;91.90;;;;;;5046685;28;20028;-50
2021/09/02 05:16:16;;;;;;;5.72;1.40;;;27.50;91.90;;;;;;5046566;28;20197;-46
2021/09/02 05:18:43;;;;;;;3.20;1.30;;;27.50;92.00;;;;;;5046445;28;20025;-51
2021/09/02 05:21:09;;;;;;;2.78;1.33;;;27.50;92.00;;;;;;5046742;28;20033;-47
2021/09/02 05:23:36;;;;;;;5.55;1.50;;;27.50;92.00;;;;;;5046316;28;20028;-47
2021/09/02 05:26:03;;;;;;;9.25;1.63;;;27.50;91.90;;;;;;5046438;28;20033;-46
2021/09/02 05:28:29;;;;;;;5.05;1.25;;;27.50;92.10;;;;;;5046443;28;20062;-48
2021/09/02 05:30:56;;;;;;;4.38;1.33;;;27.40;92.00;;;;;;5046240;28;20030;-50
2021/09/02 05:33:22;;;;;;;5.13;1.40;;;27.50;91.90;;;;;;5046487;28;20024;-50
2021/09/02 05:35:49;;;;;;;4.40;1.30;;;27.40;91.80;;;;;;5046282;28;20273;-50
2021/09/02 05:38:15;;;;;;;4.57;1.40;;;27.40;91.60;;;;;;5045982;28;20089;-50
2021/09/02 05:40:42;;;;;;;5.05;1.63;;;27.40;91.50;;;;;;5046211;28;20025;-49
2021/09/02 05:43:09;;;;;;;7.65;1.50;;;27.40;91.50;;;;;;5046096;28;20209;-49
2021/09/02 05:45:35;;;;;;;5.00;1.50;;;27.40;91.40;;;;;;5045884;28;20241;-56
2021/09/02 05:48:05;;;;;;;4.60;1.38;;;27.40;91.20;;;;;;5046332;28;20297;-49
2021/09/02 05:50:32;;;;;;;2.58;1.30;;;27.40;91.20;;;;;;5046062;28;20225;-49
2021/09/02 05:52:58;;;;;;;4.90;1.30;;;27.30;91.00;;;;;;5045908;28;20014;-48
2021/09/02 05:55:25;;;;;;;3.92;1.17;;;27.30;91.00;;;;;;5046095;28;20017;-48
2021/09/02 05:57:52;;;;;;;3.90;1.30;;;27.30;91.00;;;;;;5045912;28;20028;-50
2021/09/02 06:00:19;;;;;;;2.72;0.95;;;27.30;90.80;;;;;;5045837;28;20018;-52
2021/09/02 06:02:45;;;;;;;6.28;1.45;;;27.30;90.90;;;;;;5045722;28;20029;-49
2021/09/02 06:05:12;;;;;;;6.38;1.20;;;27.30;90.80;;;;;;5046002;28;20336;-52
2021/09/02 06:07:39;;;;;;;3.13;1.33;;;27.30;90.80;;;;;;5046246;28;20060;-50
2021/09/02 06:10:07;;;;;;;3.50;1.30;;;27.30;90.80;;;;;;5045434;28;20045;-50
2021/09/02 06:12:33;;;;;;;9.55;1.10;;;27.30;90.80;;;;;;5045585;28;20045;-52
2021/09/02 06:15:00;;;;;;;3.45;1.27;;;27.30;90.80;;;;;;5045692;28;20328;-53
2021/09/02 06:17:27;;;;;;;6.32;1.27;;;27.20;90.70;;;;;;5046216;28;20033;-47
2021/09/02 06:19:53;;;;;;;7.28;1.42;;;27.20;90.80;;;;;;5045978;28;20067;-50
2021/09/02 06:22:20;;;;;;;5.45;1.13;;;27.20;90.80;;;;;;5045717;28;20072;-54
2021/09/02 06:24:46;;;;;;;11.43;1.35;;;27.20;90.90;;;;;;5045362;28;20372;-47
2021/09/02 06:27:13;;;;;;;4.65;1.13;;;27.20;90.80;;;;;;5045746;28;20029;-47
2021/09/02 06:29:39;;;;;;;4.05;1.40;;;27.20;90.80;;;;;;5045698;28;20021;-52
2021/09/02 06:32:06;;;;;;;4.90;1.15;;;27.10;90.80;;;;;;5045510;28;20045;-46
2021/09/02 06:34:33;;;;;;;7.35;1.58;;;27.10;90.80;;;;;;5045053;28;20029;-58
2021/09/02 06:36:59;;;;;;;3.53;1.02;;;27.10;90.90;;;;;;5045822;28;20021;-51
2021/09/02 06:39:26;;;;;;;6.45;1.30;;;27.10;91.00;;;;;;5045184;28;20073;-53
2021/09/02 06:41:52;;;;;;;2.95;1.20;;;27.00;91.00;;;;;;5045441;28;20092;-47
2021/09/02 06:44:19;;;;;;;3.80;1.33;;;27.10;91.10;;;;;;5045004;28;20029;-54
2021/09/02 06:46:46;;;;;;;3.75;1.00;;;27.10;91.00;;;;;;5045077;28;20068;-52
2021/09/02 06:49:12;;;;;;;3.70;1.42;;;27.10;91.10;;;;;;5045422;28;20048;-49
2021/09/02 06:51:39;;;;;;;3.70;1.30;;;27.10;91.20;;;;;;5045149;28;20025;-47
2021/09/02 06:54:13;;;;;;;5.40;1.30;;;27.00;91.30;;;;;;5044988;28;20025;-54
2021/09/02 06:56:44;;;;;;;2.78;1.10;;;27.00;91.20;;;;;;5045093;28;20040;-52
2021/09/02 06:59:14;;;;;;;3.15;0.95;;;27.00;91.20;;;;;;5044964;28;20035;-51
2021/09/02 07:01:46;;;;;;;4.68;1.63;;;27.00;91.30;;;;;;5044929;28;20041;-53
2021/09/02 07:04:13;;;;;;;7.25;1.20;;;27.10;91.40;;;;;;5044716;28;20029;-48
2021/09/02 07:06:40;;;;;;;3.95;1.10;;;27.00;91.30;;;;;;5044788;28;20051;-51
2021/09/02 07:09:06;;;;;;;5.75;1.20;;;27.00;91.40;;;;;;5044665;28;20036;-52
2021/09/02 07:11:33;;;;;;;3.50;1.20;;;27.00;91.40;;;;;;5044393;28;20046;-45
2021/09/02 07:14:00;;;;;;;7.10;1.20;;;26.90;91.50;;;;;;5044629;28;20032;-55
2021/09/02 07:16:26;;;;;;;5.93;1.33;;;27.00;91.60;;;;;;5044801;28;20025;-46
2021/09/02 07:18:53;;;;;;;5.07;1.30;;;26.90;91.60;;;;;;5044373;28;20040;-52
2021/09/02 07:21:20;;;;;;;2.10;1.30;;;26.90;91.70;;;;;;5043784;28;20248;-45
2021/09/02 07:23:46;;;;;;;3.90;1.20;;;26.90;91.70;;;;;;5044218;28;20313;-49
2021/09/02 07:26:13;;;;;;;5.88;1.30;;;26.90;91.80;;;;;;5044452;28;20146;-49
2021/09/02 07:28:40;;;;;;;4.13;1.25;;;26.90;91.80;;;;;;5044261;28;20021;-51
2021/09/02 07:31:07;;;;;;;10.68;1.60;;;26.90;91.80;;;;;;5044129;28;20074;-51
2021/09/02 07:33:34;;;;;;;4.25;1.48;;;26.90;91.90;;;;;;5044467;28;20021;-50
2021/09/02 07:36:00;;;;;;;3.63;1.52;;;26.90;91.90;;;;;;5044412;28;20068;-47
2021/09/02 07:38:27;;;;;;;5.05;1.33;;;26.90;91.90;;;;;;5043896;28;20025;-46
2021/09/02 07:40:53;;;;;;;6.07;1.30;;;26.90;91.90;;;;;;5044249;28;20033;-57
2021/09/02 07:43:20;;;;;;;4.53;1.20;;;26.80;91.90;;;;;;5043955;28;20064;-52
2021/09/02 07:45:46;;;;;;;4.72;1.40;;;26.90;91.90;;;;;;5043807;28;20037;-49
2021/09/02 07:48:13;;;;;;;4.07;1.35;;;26.80;91.90;;;;;;5043920;28;20020;-52
2021/09/02 07:50:40;;;;;;;4.95;1.23;;;26.80;92.00;;;;;;5044412;28;20035;-52
2021/09/02 07:53:06;;;;;;;7.38;1.35;;;26.80;91.90;;;;;;5043830;28;20028;-50
2021/09/02 07:55:33;;;;;;;4.85;1.20;;;26.80;91.90;;;;;;5043848;28;20024;-53
2021/09/02 07:58:01;;;;;;;3.78;1.27;;;26.80;91.90;;;;;;5044132;28;20049;-51
2021/09/02 08:00:28;;;;;;;4.70;1.60;;;26.80;92.00;;;;;;5043913;28;20039;-46
2021/09/02 08:02:54;;;;;;;5.43;1.35;;;26.80;92.00;;;;;;5043682;28;20032;-49
2021/09/02 08:05:21;;;;;;;6.85;1.77;;;26.80;92.10;;;;;;5043586;28;20033;-50
2021/09/02 08:07:55;;;;;;;8.10;1.40;;;26.80;92.00;;;;;;5043574;28;20059;-52
2021/09/02 08:10:24;;;;;;;5.53;1.63;;;26.80;92.00;;;;;;5044036;28;20025;-57
2021/09/02 08:12:52;;;;;;;3.90;1.30;;;26.80;91.90;;;;;;5043561;28;20041;-49
2021/09/02 08:15:19;;;;;;;7.50;1.30;;;26.80;91.90;;;;;;5043924;28;20024;-50
2021/09/02 08:17:47;;;;;;;3.22;1.38;;;26.80;91.90;;;;;;5043712;28;20025;-50
2021/09/02 08:20:15;;;;;;;6.13;1.60;;;26.80;91.90;;;;;;5043856;28;20025;-55
2021/09/02 08:22:44;;;;;;;4.60;1.27;;;26.80;91.90;;;;;;5043986;28;20236;-49
2021/09/02 08:25:12;;;;;;;3.70;1.30;;;26.80;91.90;;;;;;5043589;28;20080;-48
2021/09/02 08:27:39;;;;;;;5.57;1.45;;;26.80;91.90;;;;;;5044056;28;20037;-48
2021/09/02 08:30:09;;;;;;;5.65;1.30;;;26.80;91.90;;;;;;5043774;28;20270;-49
2021/09/02 08:32:35;;;;;;;6.90;1.27;;;26.80;91.90;;;;;;5044262;28;20040;-47
2021/09/02 08:35:02;;;;;;;6.60;1.33;;;26.80;91.80;;;;;;5047785;28;20018;-50
2021/09/02 08:37:29;;;;;;;6.25;1.38;;;26.70;91.80;;;;;;5048019;28;20037;-52
2021/09/02 08:39:55;;;;;;;5.65;1.45;;;26.70;91.90;;;;;;5047501;28;20119;-49
2021/09/02 08:42:22;;;;;;;6.38;1.38;;;26.70;91.90;;;;;;5047218;28;20029;-49
2021/09/02 08:44:49;;;;;;;4.80;1.30;;;26.70;91.80;;;;;;5047449;28;20025;-54
2021/09/02 08:47:20;;;;;;;7.43;1.52;;;26.70;91.70;;;;;;5047970;28;20051;-48
2021/09/02 08:49:48;;;;;;;6.97;1.27;;;26.70;91.80;;;;;;5047444;28;20025;-49
2021/09/02 08:52:15;;;;;;;4.50;1.30;;;26.70;91.80;;;;;;5047821;28;20033;-46
2021/09/02 08:54:42;;;;;;;2.13;1.20;;;26.70;91.80;;;;;;5047313;28;20021;-54
2021/09/02 08:57:08;;;;;;;4.63;1.50;;;26.70;91.80;;;;;;5047423;28;20052;-48
2021/09/02 08:59:35;;;;;;;3.10;0.98;;;26.70;91.90;;;;;;5047018;28;20021;-46
2021/09/02 09:02:23;;;;;;;4.88;1.20;;;26.70;91.90;;;;;;5046830;28;20029;-56
2021/09/02 09:05:03;;;;;;;2.72;1.30;;;26.70;91.90;;;;;;5046940;28;20144;-51
2021/09/02 09:07:35;;;;;;;8.40;1.30;;;26.60;91.80;;;;;;5047255;28;20029;-47
2021/09/02 09:10:08;;;;;;;4.72;1.20;;;26.60;91.70;;;;;;5046884;28;20305;-51
2021/09/02 09:12:37;;;;;;;3.63;1.30;;;26.60;91.70;;;;;;5046671;28;20349;-52
2021/09/02 09:15:06;;;;;;;5.93;1.00;;;26.60;91.70;;;;;;5046798;28;20033;-52
2021/09/02 09:17:33;;;;;;;4.97;1.33;;;26.60;91.70;;;;;;5047419;28;20021;-52
2021/09/02 09:20:00;;;;;;;5.30;1.40;;;26.60;91.60;;;;;;5046694;28;20021;-51
2021/09/02 09:22:29;;;;;;;5.63;1.20;;;26.60;91.60;;;;;;5046827;28;20092;-48
2021/09/02 09:25:04;;;;;;;5.68;1.25;;;26.60;91.60;;;;;;5046517;28;20036;-48
2021/09/02 09:27:38;;;;;;;4.25;1.23;;;26.60;91.60;;;;;;5046976;28;20213;-45
2021/09/02 09:30:08;;;;;;;3.97;1.08;;;26.60;91.60;;;;;;5046363;28;20183;-48
2021/09/02 09:33:03;;;;;;;6.82;1.25;;;26.60;91.50;;;;;;5047191;28;20025;-50
2021/09/02 09:35:36;;;;;;;3.85;1.20;;;26.60;91.50;;;;;;5046562;28;20014;-51
2021/09/02 09:38:11;;;;;;;4.00;1.40;;;26.60;91.50;;;;;;5046356;28;20021;-46
2021/09/02 09:40:40;;;;;;;6.15;1.20;;;26.60;91.50;;;;;;5046215;28;20025;-51
2021/09/02 09:43:13;;;;;;;4.18;1.15;;;26.60;91.40;;;;;;5045938;28;20029;-50
2021/09/02 09:45:57;;;;;;;2.25;1.00;;;26.60;91.40;;;;;;5045910;28;20029;-47
2021/09/02 09:48:23;;;;;;;4.47;1.50;;;26.60;91.30;;;;;;5046314;28;20022;-49
2021/09/02 09:51:14;;;;;;;2.22;1.02;;;26.60;91.20;;;;;;5045783;28;20025;-49
2021/09/02 09:53:44;;;;;;;5.18;1.10;;;26.60;91.30;;;;;;5046132;28;20381;-46
2021/09/02 09:56:11;;;;;;;5.88;1.48;;;26.60;91.30;;;;;;5046005;28;20052;-51
2021/09/02 09:58:38;;;;;;;5.55;1.10;;;26.60;91.20;;;;;;5045801;28;20194;-46
2021/09/02 10:01:06;;;;;;;4.97;1.10;;;26.60;91.20;;;;;;5045834;28;20036;-50
2021/09/02 10:03:34;;;;;;;6.25;1.45;;;26.60;91.30;;;;;;5045581;28;20072;-47
2021/09/02 10:06:10;;;;;;;6.38;1.50;;;26.60;91.30;;;;;;5045766;28;20298;-45
2021/09/02 10:08:41;;;;;;;8.10;1.70;;;26.60;91.40;;;;;;5046188;28;20029;-46
2021/09/02 10:11:11;;;;;;;5.00;1.10;;;26.60;91.30;;;;;;5045661;28;20109;-48
2021/09/02 10:13:38;;;;;;;8.60;2.00;;;26.60;91.40;;;;;;5045742;28;20222;-51
2021/09/02 10:16:06;;;;;;;6.82;1.60;;;26.60;91.40;;;;;;5046262;28;20087;-47
2021/09/02 10:18:42;;;;;;;5.80;1.38;;;26.60;91.30;;;;;;5045664;28;20147;-49
2021/09/02 10:21:10;;;;;;;6.13;1.30;;;26.60;91.30;;;;;;5045802;28;20092;-49
2021/09/02 10:23:37;;;;;;;4.57;1.45;;;26.60;91.30;;;;;;5045360;28;20405;-52
2021/09/02 10:26:04;;;;;;;6.53;1.38;;;26.60;91.30;;;;;;5045628;28;20036;-53
2021/09/02 10:28:35;;;;;;;4.03;1.23;;;26.60;91.30;;;;;;5045767;28;20048;-52
2021/09/02 10:31:05;;;;;;;3.40;1.50;;;26.60;91.20;;;;;;5045695;28;20049;-53
2021/09/02 10:33:33;;;;;;;4.10;1.20;;;26.60;91.10;;;;;;5045651;28;20018;-50
2021/09/02 10:36:02;;;;;;;5.00;1.17;;;26.60;91.10;;;;;;5045402;28;20036;-50
2021/09/02 10:38:45;;;;;;;7.13;1.77;;;26.60;91.10;;;;;;5045223;28;20303;-51
2021/09/02 10:41:12;;;;;;;3.97;1.20;;;26.60;91.20;;;;;;5045430;28;20096;-49
2021/09/02 10:43:55;;;;;;;5.05;1.40;;;26.60;91.20;;;;;;5045032;28;20329;-49
2021/09/02 10:46:38;;;;;;;;;;;26.60;91.20;;;;;;5045704;28;20025;-48
2021/09/02 10:49:25;;;;;;;;;;;26.60;91.10;;;;;;5045407;28;19908;-50
2021/09/02 10:51:55;;;;;;;6.40;1.52;;;26.60;91.30;;;;;;5045417;28;20107;-46
2021/09/02 10:54:30;;;;;;;7.15;1.40;;;26.60;91.30;;;;;;5045565;28;20088;-47
2021/09/02 10:57:01;;;;;;;3.05;1.20;;;26.60;91.30;;;;;;5044720;28;20036;-47
2021/09/02 10:59:50;;;;;;;6.78;1.50;;;26.50;91.30;;;;;;5045012;28;20021;-49
2021/09/02 11:02:17;;;;;;;9.65;1.63;;;26.60;91.40;;;;;;5044983;28;20032;-50
2021/09/02 11:04:56;;;;;;;6.65;1.98;;;26.60;91.40;;;;;;5044777;28;20017;-52
2021/09/02 11:07:43;;;;;;;7.70;2.38;;;26.60;91.40;;;;;;5045317;28;20072;-47
2021/09/02 11:10:36;;;;;;;7.38;2.25;;;26.60;91.40;;;;;;5045592;28;20044;-48
2021/09/02 11:13:07;;;;;;;4.35;2.03;;;26.60;91.50;;;;;;5043282;28;20079;-48
2021/09/02 11:15:38;;;;;;;5.75;2.17;;;26.60;91.60;;;;;;5044794;28;20120;-50
2021/09/02 11:18:06;;;;;;;3.72;1.70;;;26.60;91.50;;;;;;5044798;28;20380;-49
2021/09/02 11:20:37;;;;;;;4.75;1.85;;;26.60;91.40;;;;;;5044515;28;20026;-57
2021/09/02 11:23:15;;;;;;;6.13;1.95;;;26.60;91.60;;;;;;5044585;28;20048;-52
2021/09/02 11:25:47;;;;;;;5.95;1.98;;;26.60;91.50;;;;;;5044386;28;20357;-47
2021/09/02 11:28:15;;;;;;;7.30;2.25;;;26.70;91.60;;;;;;5044840;28;20032;-48
2021/09/02 11:30:42;;;;;;;4.40;2.35;;;26.70;91.40;;;;;;5044620;28;20068;-49
2021/09/02 11:33:09;;;;;;;4.78;2.33;;;26.80;91.50;;;;;;5044374;28;20017;-54
2021/09/02 11:35:37;;;;;;;3.65;2.53;;;26.80;91.60;;;;;;5044597;28;20320;-47
2021/09/02 11:38:04;;;;;;;6.78;2.17;;;26.80;91.50;;;;;;5044427;28;20025;-50
2021/09/02 11:40:35;;;;;;;10.27;2.70;;;26.90;91.50;;;;;;5044363;28;20063;-59
2021/09/02 11:43:04;;;;;;;7.40;2.05;;;26.90;91.40;;;;;;5043312;28;20026;-52
2021/09/02 11:45:34;;;;;;;6.93;2.00;;;27.00;91.40;;;;;;5044374;28;20029;-46
2021/09/02 11:48:05;;;;;;;5.05;2.28;;;27.10;91.40;;;;;;5044358;28;20033;-48
2021/09/02 11:50:33;;;;;;;5.45;2.00;;;27.10;91.40;;;;;;5043321;28;20029;-49
2021/09/02 11:53:00;;;;;;;4.75;1.77;;;27.20;91.30;;;;;;5044088;28;20376;-48
2021/09/02 11:55:28;;;;;;;5.80;1.88;;;27.20;91.20;;;;;;5044213;28;20017;-50
2021/09/02 11:57:56;;;;;;;10.25;2.28;;;27.20;91.20;;;;;;5044239;28;20021;-51
2021/09/02 12:00:23;;;;;;;5.80;1.63;;;27.20;91.20;;;;;;5043963;28;20056;-49
2021/09/02 12:02:52;;;;;;;4.88;1.90;;;27.20;91.20;;;;;;5044051;28;20214;-49
2021/09/02 12:05:21;;;;;;;4.28;1.50;;;27.20;91.20;;;;;;5044012;28;20022;-50
2021/09/02 12:07:53;;;;;;;6.28;1.75;;;27.20;91.20;;;;;;5043601;28;20092;-47
2021/09/02 12:10:21;;;;;;;5.47;1.77;;;27.20;91.20;;;;;;5043775;28;20313;-52
2021/09/02 12:12:48;;;;;;;4.20;2.00;;;27.20;91.20;;;;;;5043774;28;20046;-47
2021/09/02 12:15:30;;;;;;;7.32;1.77;;;27.20;91.20;;;;;;5043664;28;20328;-48
2021/09/02 12:18:12;;;;;;;3.92;1.73;;;27.20;91.20;;;;;;5043839;28;20217;-51
2021/09/02 12:20:40;;;;;;;;;;;27.30;91.30;;;;;;5043897;28;20029;-48
2021/09/02 12:23:24;;;;;;;5.10;2.00;;;27.30;91.30;;;;;;5043614;28;20101;-50
2021/09/02 12:25:58;;;;;;;6.38;1.90;;;27.30;91.50;;;;;;5043704;28;20037;-50
2021/09/02 12:28:33;;;;;;;2.28;1.88;;;27.30;91.50;;;;;;5043695;28;20037;-51
2021/09/02 12:31:18;;;;;;;5.40;2.00;;;27.30;91.40;;;;;;5043713;28;20077;-50
2021/09/02 12:34:05;;;;;;;4.68;2.30;;;27.30;91.50;;;;;;5043651;28;20026;-48
2021/09/02 12:36:43;;;;;;;4.95;1.92;;;27.30;91.50;;;;;;5043991;28;20282;-47
2021/09/02 12:39:24;;;;;;;6.05;2.10;;;27.30;91.50;;;;;;5043642;28;20040;-52
2021/09/02 12:42:00;;;;;;;6.38;2.03;;;27.30;91.50;;;;;;5043507;28;20067;-56
2021/09/02 12:44:31;;;;;;;6.60;1.75;;;27.30;91.60;;;;;;5043613;28;20040;-51
2021/09/02 12:47:13;;;;;;;4.05;1.70;;;27.40;91.60;;;;;;5043912;28;20247;-52
2021/09/02 12:49:39;;;;;;;4.97;1.60;;;27.40;91.70;;;;;;5043796;28;20022;-50
2021/09/02 12:52:14;;;;;;;7.55;2.20;;;27.50;91.70;;;;;;5043695;28;20118;-55
2021/09/02 12:55:08;;;;;;;4.28;1.50;;;27.50;91.60;;;;;;5043361;28;20187;-53
2021/09/02 12:57:43;;;;;;;5.68;1.73;;;27.50;91.30;;;;;;5043738;28;20017;-48
2021/09/02 13:00:11;;;;;;;5.00;2.20;;;27.60;91.40;;;;;;5043282;28;20365;-54
2021/09/02 13:02:38;;;;;;;4.53;1.95;;;27.60;91.40;;;;;;5043798;28;20261;-54